createdAt,value
2023-05-14T00:00:02.319Z,15.17
2023-05-14T00:07:02.301Z,15.17
2023-05-14T00:14:02.224Z,14.92
2023-05-14T00:21:01.843Z,14.92
2023-05-14T00:28:01.584Z,14.76
2023-05-14T00:35:02.249Z,14.76
2023-05-14T00:42:02.058Z,14.42
2023-05-14T00:49:01.923Z,14.2
2023-05-14T00:56:01.617Z,14.2
2023-05-14T01:00:02.210Z,14.2
2023-05-14T01:07:01.367Z,14.04
2023-05-14T01:14:01.810Z,13.92
2023-05-14T01:21:01.865Z,13.92
2023-05-14T01:28:02.164Z,13.7
2023-05-14T01:35:02.453Z,13.7
2023-05-14T01:42:01.467Z,13.49
2023-05-14T01:49:01.695Z,13.49
2023-05-14T01:56:01.369Z,13.22
2023-05-14T02:00:01.938Z,13.22
2023-05-14T02:07:01.900Z,13.16
2023-05-14T02:14:01.632Z,13.16
2023-05-14T02:21:02.095Z,13.01
2023-05-14T02:28:01.868Z,13.01
2023-05-14T02:35:02.213Z,12.88
2023-05-14T02:42:02.147Z,12.88
2023-05-14T02:49:01.805Z,12.76
2023-05-14T02:56:01.981Z,12.76
2023-05-14T03:00:01.560Z,12.74
2023-05-14T03:07:02.075Z,12.74
2023-05-14T03:14:01.474Z,12.6
2023-05-14T03:21:01.405Z,12.6
2023-05-14T03:28:01.879Z,12.55
2023-05-14T03:35:02.264Z,12.55
2023-05-14T03:42:01.454Z,12.38
2023-05-14T03:49:01.576Z,12.25
2023-05-14T03:56:02.203Z,12.25
2023-05-14T04:00:01.749Z,12.25
2023-05-14T04:07:02.246Z,12.08
2023-05-14T04:14:01.952Z,11.85
2023-05-14T04:21:01.851Z,11.85
2023-05-14T04:28:02.122Z,11.74
2023-05-14T04:35:02.257Z,11.74
2023-05-14T04:42:01.382Z,11.66
2023-05-14T04:49:01.997Z,11.66
2023-05-14T04:56:01.664Z,11.72
2023-05-14T05:00:02.404Z,11.72
2023-05-14T05:07:01.833Z,11.66
2023-05-14T05:14:01.478Z,11.66
2023-05-14T05:21:02.213Z,11.8
2023-05-14T05:28:02.280Z,11.8
2023-05-14T05:35:02.171Z,11.83
2023-05-14T05:42:02.010Z,11.83
2023-05-14T05:49:02.069Z,11.89
2023-05-14T05:56:01.946Z,11.89
2023-05-14T06:00:02.621Z,12.1
2023-05-14T06:07:02.218Z,12.1
2023-05-14T06:14:01.368Z,12.2
2023-05-14T06:21:01.624Z,12.2
2023-05-14T06:28:01.346Z,12.51
2023-05-14T06:35:02.468Z,12.51
2023-05-14T06:42:01.926Z,12.71
2023-05-14T06:49:01.873Z,13.12
2023-05-14T06:56:01.809Z,13.12
2023-05-14T07:00:03.664Z,13.12
2023-05-14T07:07:01.726Z,13.41
2023-05-14T07:14:02.021Z,13.6
2023-05-14T07:21:01.834Z,13.6
2023-05-14T07:28:01.414Z,13.9
2023-05-14T07:35:02.000Z,13.9
2023-05-14T07:42:01.559Z,14.11
2023-05-14T07:49:02.011Z,14.11
2023-05-14T07:56:02.021Z,14.41
2023-05-14T08:00:01.570Z,14.41
2023-05-14T08:07:02.129Z,14.66
2023-05-14T08:14:01.971Z,14.66
2023-05-14T08:21:03.375Z,14.93
2023-05-14T08:28:02.245Z,14.93
2023-05-14T08:35:01.540Z,15.15
2023-05-14T08:42:02.197Z,15.15
2023-05-14T08:49:01.445Z,15.43
2023-05-14T08:56:02.068Z,15.43
2023-05-14T09:00:01.696Z,15.71
2023-05-14T09:07:01.877Z,15.71
2023-05-14T09:14:02.020Z,16.02
2023-05-14T09:21:01.420Z,16.02
2023-05-14T09:28:01.417Z,16.18
2023-05-14T09:35:01.546Z,16.18
2023-05-14T09:42:02.099Z,16.42
2023-05-14T09:49:01.487Z,16.62
2023-05-14T09:56:01.622Z,16.62
2023-05-14T10:00:02.269Z,16.62
2023-05-14T10:07:01.410Z,16.94
2023-05-14T10:14:01.701Z,16.94
2023-05-14T10:21:01.978Z,17.21
2023-05-14T10:28:01.474Z,17.46
2023-05-14T10:35:01.918Z,17.46
2023-05-14T10:42:01.684Z,17.66
2023-05-14T10:49:01.531Z,17.66
2023-05-14T10:56:01.883Z,17.72
2023-05-14T11:00:02.618Z,17.72
2023-05-14T11:07:02.332Z,17.92
2023-05-14T11:14:02.308Z,17.92
2023-05-14T11:21:02.091Z,17.9
2023-05-14T11:28:02.050Z,17.9
2023-05-14T11:35:01.497Z,17.89
2023-05-14T11:42:02.178Z,17.89
2023-05-14T11:49:02.166Z,18.08
2023-05-14T11:56:01.596Z,18.08
2023-05-14T12:00:02.162Z,18.24
2023-05-14T12:07:02.128Z,18.24
2023-05-14T12:14:01.709Z,18.33
2023-05-14T12:21:01.764Z,18.33
2023-05-14T12:28:02.020Z,18.46
2023-05-14T12:35:02.501Z,18.46
2023-05-14T12:42:02.127Z,18.45
2023-05-14T12:49:01.952Z,18.45
2023-05-14T12:56:01.519Z,18.6
2023-05-14T13:00:02.097Z,18.6
2023-05-14T13:07:01.535Z,18.69
2023-05-14T13:14:02.066Z,18.69
2023-05-14T13:21:01.812Z,18.79
2023-05-14T13:28:02.051Z,18.84
2023-05-14T13:35:01.760Z,18.84
2023-05-14T13:42:02.043Z,18.91
2023-05-14T13:49:01.702Z,18.91
2023-05-14T13:56:01.509Z,19.03
2023-05-14T14:00:02.217Z,19.03
2023-05-14T14:07:02.180Z,18.92
2023-05-14T14:14:01.772Z,18.92
2023-05-14T14:21:01.846Z,18.92
2023-05-14T14:28:01.356Z,18.92
2023-05-14T14:35:02.497Z,19.03
2023-05-14T14:42:01.408Z,19.03
2023-05-14T14:49:01.379Z,19.17
2023-05-14T14:56:02.291Z,19.17
2023-05-14T15:00:02.650Z,19.3
2023-05-14T15:07:02.105Z,19.3
2023-05-14T15:14:01.610Z,19.3
2023-05-14T15:21:01.600Z,19.3
2023-05-14T15:42:01.828Z,19.56
2023-05-14T15:49:01.529Z,19.56
2023-05-14T15:56:02.190Z,19.4
2023-05-14T16:00:01.721Z,19.4
2023-05-14T16:07:01.326Z,19.41
2023-05-14T16:14:01.698Z,19.41
2023-05-14T16:21:01.412Z,19.37
2023-05-14T16:28:02.119Z,19.37
2023-05-14T16:35:02.655Z,19.36
2023-05-14T16:42:01.634Z,19.19
2023-05-14T16:49:01.579Z,19.19
2023-05-14T16:56:01.428Z,19.25
2023-05-14T17:00:02.048Z,19.25
2023-05-14T17:07:02.085Z,19.25
2023-05-14T17:14:01.553Z,19.14
2023-05-14T17:21:01.805Z,19.19
2023-05-14T17:28:01.794Z,19.19
2023-05-14T17:35:01.779Z,19.16
2023-05-14T17:42:02.226Z,19.16
2023-05-14T17:49:01.674Z,19.06
2023-05-14T17:56:01.631Z,19.06
2023-05-14T18:00:02.361Z,18.98
2023-05-14T18:07:01.850Z,18.98
2023-05-14T18:14:01.657Z,18.78
2023-05-14T18:21:01.875Z,18.78
2023-05-14T18:28:02.037Z,18.7
2023-05-14T18:35:01.675Z,18.7
2023-05-14T18:42:01.466Z,18.48
2023-05-14T18:49:02.136Z,18.48
2023-05-14T18:56:01.808Z,18.24
2023-05-14T19:00:02.586Z,18.24
2023-05-14T19:07:01.737Z,18.19
2023-05-14T19:14:01.948Z,18.19
2023-05-14T19:21:01.625Z,17.15
2023-05-14T19:28:01.637Z,17.15
2023-05-14T19:35:02.669Z,17.99
2023-05-14T19:42:01.607Z,17.51
2023-05-14T19:49:02.287Z,17.51
2023-05-14T19:56:01.694Z,17.58
2023-05-14T20:00:02.342Z,17.58
2023-05-14T20:07:01.975Z,17.58
2023-05-14T20:14:01.553Z,17.65
2023-05-14T20:21:01.531Z,17.28
2023-05-14T20:28:02.261Z,17.28
2023-05-14T20:35:01.713Z,17.32
2023-05-14T20:42:01.745Z,17.32
2023-05-14T20:49:01.414Z,17.37
2023-05-14T20:56:02.219Z,17.37
2023-05-14T21:00:01.853Z,17.11
2023-05-14T21:07:02.121Z,17.11
2023-05-14T21:14:01.534Z,17.17
2023-05-14T21:21:02.305Z,17.17
2023-05-14T21:28:01.809Z,17.18
2023-05-14T21:35:02.370Z,17.18
2023-05-14T21:42:01.714Z,17.19
2023-05-14T21:49:01.404Z,17.19
2023-05-14T21:56:01.588Z,17.15
2023-05-14T22:00:02.378Z,17.15
2023-05-14T22:07:01.401Z,17.06
2023-05-14T22:14:01.339Z,17.06
2023-05-14T22:21:01.572Z,16.76
2023-05-14T22:28:02.253Z,16.76
2023-05-14T22:35:02.271Z,16.87
2023-05-14T22:42:01.844Z,16.73
2023-05-14T22:49:01.543Z,16.73
2023-05-14T22:56:02.028Z,16.67
2023-05-14T23:00:01.611Z,16.67
2023-05-14T23:07:02.185Z,16.67
2023-05-14T23:14:02.194Z,16.54
2023-05-14T23:21:01.990Z,16.32
2023-05-14T23:28:01.495Z,16.32
2023-05-14T23:35:01.520Z,16
2023-05-14T23:42:01.700Z,16
2023-05-14T23:49:02.061Z,16.19
2023-05-14T23:56:01.374Z,16.19
